Time;durP1;ratioP1;P1;durP2;ratioP2;P2;SDS_P1;SDS_P2;PMS_P1;PMS_P2;Temp;Humidity;BMP_temperature;BMP_pressure;BME280_temperature;BME280_humidity;BME280_pressure;Samples;Min_cycle;Max_cycle;Signal;HPM_P1;HPM_P2
2024/02/27 00:00:11;;;;;;;32.53;17.43;;;;;;;;;;5031808;28;20192;-75
2024/02/27 00:02:38;;;;;;;36.67;17.97;;;;;;;;;;5031112;28;20186;-74
2024/02/27 00:05:03;;;;;;;32.67;17.70;;;;;;;;;;5018724;28;20193;-75
2024/02/27 00:07:29;;;;;;;33.20;17.70;;;;;;;;;;5025522;28;20194;-75
2024/02/27 00:09:57;;;;;;;35.40;16.63;;;;;;;;;;5044456;28;20185;-76
2024/02/27 00:12:22;;;;;;;30.87;16.63;;;;;;;;;;5037416;28;20269;-76
2024/02/27 00:14:48;;;;;;;30.10;16.67;;;;;;;;;;5029285;28;20550;-76
2024/02/27 00:17:13;;;;;;;36.07;18.53;;;;;;;;;;5014474;28;20254;-75
2024/02/27 00:19:39;;;;;;;33.20;17.23;;;;;;;;;;5028677;28;20264;-76
2024/02/27 00:22:04;;;;;;;32.83;17.13;;;;;;;;;;5033316;28;20558;-75
2024/02/27 00:24:30;;;;;;;34.20;18.20;;;;;;;;;;5008426;28;20187;-75
2024/02/27 00:26:55;;;;;;;37.13;18.83;;;;;;;;;;5001358;28;20186;-75
2024/02/27 00:29:21;;;;;;;32.43;16.47;;;;;;;;;;5043058;28;20190;-75
2024/02/27 00:31:47;;;;;;;33.23;18.03;;;;;;;;;;5042477;28;20229;-75
2024/02/27 00:34:14;;;;;;;32.47;18.47;;;;;;;;;;5017487;28;20225;-75
2024/02/27 00:36:40;;;;;;;35.70;19.13;;;;;;;;;;5030994;28;20214;-75
2024/02/27 00:39:05;;;;;;;34.60;18.87;;;;;;;;;;5044830;28;20197;-75
2024/02/27 00:41:31;;;;;;;33.67;18.07;;;;;;;;;;5024105;28;20623;-75
2024/02/27 00:43:56;;;;;;;36.87;17.60;;;;;;;;;;5020295;28;20204;-75
2024/02/27 00:46:21;;;;;;;32.73;17.73;;;;;;;;;;5030159;28;20585;-76
2024/02/27 00:48:47;;;;;;;32.47;17.43;;;;;;;;;;5037745;28;20654;-75
2024/02/27 00:51:12;;;;;;;33.47;17.50;;;;;;;;;;5043241;28;20193;-75
2024/02/27 00:53:39;;;;;;;37.20;19.00;;;;;;;;;;5023435;28;20188;-76
2024/02/27 00:56:05;;;;;;;34.57;17.83;;;;;;;;;;5030406;28;20693;-75
2024/02/27 00:58:31;;;;;;;34.57;18.57;;;;;;;;;;5027558;28;20198;-75
2024/02/27 01:00:56;;;;;;;33.33;18.00;;;;;;;;;;5029796;28;20269;-75
2024/02/27 01:03:21;;;;;;;36.53;18.27;;;;;;;;;;5033268;28;20198;-76
2024/02/27 01:05:47;;;;;;;36.33;17.97;;;;;;;;;;5016902;28;20632;-76
2024/02/27 01:08:12;;;;;;;35.90;18.13;;;;;;;;;;5031130;28;20201;-76
2024/02/27 01:10:38;;;;;;;41.40;19.53;;;;;;;;;;5030473;28;20626;-76
2024/02/27 01:13:03;;;;;;;33.00;18.37;;;;;;;;;;5021281;28;20245;-76
2024/02/27 01:15:29;;;;;;;36.90;19.20;;;;;;;;;;5026252;28;20206;-76
2024/02/27 01:17:57;;;;;;;40.63;18.63;;;;;;;;;;5034886;28;20286;-75
2024/02/27 01:20:22;;;;;;;38.67;18.80;;;;;;;;;;5037613;28;20241;-75
2024/02/27 01:22:48;;;;;;;40.27;19.27;;;;;;;;;;5030035;28;20196;-78
2024/02/27 01:25:15;;;;;;;40.10;19.17;;;;;;;;;;5029367;28;20186;-75
2024/02/27 01:27:41;;;;;;;39.27;18.60;;;;;;;;;;5039794;28;20274;-75
2024/02/27 01:30:07;;;;;;;40.70;19.67;;;;;;;;;;5034349;28;20218;-75
2024/02/27 01:32:32;;;;;;;40.90;19.13;;;;;;;;;;5031635;28;20182;-75
2024/02/27 01:34:58;;;;;;;39.80;19.87;;;;;;;;;;5032831;28;20197;-76
2024/02/27 01:37:23;;;;;;;39.47;18.13;;;;;;;;;;5034503;28;20570;-75
2024/02/27 01:39:49;;;;;;;39.83;19.57;;;;;;;;;;5038515;28;20193;-75
2024/02/27 01:42:14;;;;;;;39.30;19.57;;;;;;;;;;5027603;28;20221;-75
2024/02/27 01:44:48;;;;;;;41.40;19.87;;;;;;;;;;5021572;28;20201;-75
2024/02/27 01:47:14;;;;;;;41.10;18.93;;;;;;;;;;5039951;28;20727;-75
2024/02/27 01:49:41;;;;;;;38.07;18.00;;;;;;;;;;5025805;28;20604;-75
2024/02/27 01:52:07;;;;;;;42.40;21.00;;;;;;;;;;5030049;28;20583;-76
2024/02/27 01:54:33;;;;;;;39.23;19.83;;;;;;;;;;5024309;28;20198;-75
2024/02/27 01:56:59;;;;;;;41.20;19.20;;;;;;;;;;5034211;28;20229;-75
2024/02/27 01:59:25;;;;;;;39.33;19.17;;;;;;;;;;5028651;28;20449;-74
2024/02/27 02:01:52;;;;;;;37.23;18.47;;;;;;;;;;5023815;28;20202;-74
2024/02/27 02:04:18;;;;;;;41.87;20.53;;;;;;;;;;5027115;28;20220;-76
2024/02/27 02:06:44;;;;;;;41.43;19.40;;;;;;;;;;5035874;28;20223;-74
2024/02/27 02:09:11;;;;;;;42.13;19.57;;;;;;;;;;5028711;28;20546;-75
2024/02/27 02:11:37;;;;;;;39.77;19.60;;;;;;;;;;5021106;28;20277;-75
2024/02/27 02:14:03;;;;;;;45.10;20.97;;;;;;;;;;5022484;28;20197;-75
2024/02/27 02:16:28;;;;;;;44.53;19.43;;;;;;;;;;5043268;28;20254;-75
2024/02/27 02:18:56;;;;;;;40.70;19.73;;;;;;;;;;5027584;28;20229;-75
2024/02/27 02:21:21;;;;;;;43.50;18.97;;;;;;;;;;5032980;28;20193;-75
2024/02/27 02:23:47;;;;;;;43.00;19.20;;;;;;;;;;5025567;28;20255;-75
2024/02/27 02:26:13;;;;;;;45.23;20.23;;;;;;;;;;5035740;28;20278;-76
2024/02/27 02:28:39;;;;;;;44.97;19.97;;;;;;;;;;5041172;28;20190;-75
2024/02/27 02:31:04;;;;;;;41.53;19.53;;;;;;;;;;5030014;28;20229;-76
2024/02/27 02:33:29;;;;;;;46.83;19.97;;;;;;;;;;5002302;28;20210;-75
2024/02/27 02:35:55;;;;;;;45.20;18.87;;;;;;;;;;5036788;28;20214;-75
2024/02/27 02:38:21;;;;;;;49.37;20.07;;;;;;;;;;5033164;28;20611;-75
2024/02/27 02:40:47;;;;;;;46.70;21.07;;;;;;;;;;5030232;28;20192;-75
2024/02/27 02:43:12;;;;;;;46.07;20.73;;;;;;;;;;5034017;28;20189;-75
2024/02/27 02:45:40;;;;;;;45.90;20.33;;;;;;;;;;5038046;28;20212;-76
2024/02/27 02:48:06;;;;;;;46.60;20.17;;;;;;;;;;5037758;28;20242;-75
2024/02/27 02:50:32;;;;;;;48.67;20.50;;;;;;;;;;5026377;28;20247;-75
2024/02/27 02:52:58;;;;;;;47.33;20.93;;;;;;;;;;5043072;28;20193;-76
2024/02/27 02:55:23;;;;;;;44.70;19.73;;;;;;;;;;5034319;28;20198;-76
2024/02/27 02:57:49;;;;;;;50.50;20.27;;;;;;;;;;5034418;28;20244;-76
2024/02/27 03:00:15;;;;;;;53.00;21.97;;;;;;;;;;5045252;28;20667;-76
2024/02/27 03:02:40;;;;;;;47.80;20.77;;;;;;;;;;5047680;28;20787;-76
2024/02/27 03:05:06;;;;;;;52.13;21.00;;;;;;;;;;5027884;28;20224;-75
2024/02/27 03:07:31;;;;;;;49.20;20.37;;;;;;;;;;5035841;28;20186;-75
2024/02/27 03:09:57;;;;;;;50.20;21.13;;;;;;;;;;5028963;28;20197;-75
2024/02/27 03:12:23;;;;;;;50.13;20.73;;;;;;;;;;5037563;28;20204;-75
2024/02/27 03:14:49;;;;;;;42.33;19.43;;;;;;;;;;5017992;28;20631;-75
2024/02/27 03:17:16;;;;;;;45.57;21.10;;;;;;;;;;5042380;28;20190;-75
2024/02/27 03:19:42;;;;;;;51.60;21.93;;;;;;;;;;5051035;28;20229;-74
2024/02/27 03:22:09;;;;;;;51.37;21.20;;;;;;;;;;5033169;28;20509;-74
2024/02/27 03:24:35;;;;;;;53.90;21.30;;;;;;;;;;5036549;28;20200;-76
2024/02/27 03:27:01;;;;;;;54.63;22.00;;;;;;;;;;5039605;28;20181;-75
2024/02/27 03:29:29;;;;;;;51.30;21.33;;;;;;;;;;5041707;28;20258;-75
2024/02/27 03:31:54;;;;;;;52.57;21.33;;;;;;;;;;5020670;28;20712;-76
2024/02/27 03:34:20;;;;;;;49.23;21.10;;;;;;;;;;5035056;28;20203;-75
2024/02/27 03:36:45;;;;;;;54.03;20.83;;;;;;;;;;5029619;28;20218;-75
2024/02/27 03:39:13;;;;;;;51.47;21.23;;;;;;;;;;5048602;28;20645;-76
2024/02/27 03:41:39;;;;;;;54.93;22.00;;;;;;;;;;5023717;28;20178;-76
2024/02/27 03:44:04;;;;;;;53.53;21.17;;;;;;;;;;5039703;28;20402;-75
2024/02/27 03:46:30;;;;;;;50.63;20.97;;;;;;;;;;5035905;28;20186;-76
2024/02/27 03:48:55;;;;;;;49.50;20.30;;;;;;;;;;5038006;28;20186;-76
2024/02/27 03:51:20;;;;;;;49.87;20.77;;;;;;;;;;5033927;28;20208;-76
2024/02/27 03:53:46;;;;;;;53.63;20.93;;;;;;;;;;5043078;28;20193;-76
2024/02/27 03:56:11;;;;;;;52.07;21.00;;;;;;;;;;5035381;28;20221;-75
2024/02/27 03:58:37;;;;;;;47.57;20.90;;;;;;;;;;5028200;28;20205;-75
2024/02/27 04:01:02;;;;;;;53.27;21.43;;;;;;;;;;5032782;28;20201;-75
2024/02/27 04:03:27;;;;;;;54.60;21.27;;;;;;;;;;5041897;28;20314;-76
2024/02/27 04:05:53;;;;;;;51.73;21.63;;;;;;;;;;5031925;28;20289;-75
2024/02/27 04:08:19;;;;;;;52.53;21.60;;;;;;;;;;5038822;28;20276;-75
2024/02/27 04:10:44;;;;;;;49.27;21.03;;;;;;;;;;5035205;28;20213;-75
2024/02/27 04:13:09;;;;;;;55.93;21.57;;;;;;;;;;5042470;28;20339;-75
2024/02/27 04:15:35;;;;;;;58.60;20.83;;;;;;;;;;5024055;28;20238;-75
2024/02/27 04:18:01;;;;;;;53.77;20.47;;;;;;;;;;5043462;28;20273;-75
2024/02/27 04:20:26;;;;;;;55.77;21.33;;;;;;;;;;5030563;28;20607;-75
2024/02/27 04:22:52;;;;;;;51.00;21.07;;;;;;;;;;5028447;28;20247;-75
2024/02/27 04:25:18;;;;;;;53.57;21.00;;;;;;;;;;5025809;28;20272;-74
2024/02/27 04:27:43;;;;;;;49.07;20.27;;;;;;;;;;5043678;28;20342;-74
2024/02/27 04:30:10;;;;;;;58.23;22.10;;;;;;;;;;5028443;28;20190;-75
2024/02/27 04:32:35;;;;;;;55.23;21.47;;;;;;;;;;5029857;28;20665;-76
2024/02/27 04:35:01;;;;;;;52.80;20.60;;;;;;;;;;5031314;28;20216;-75
2024/02/27 04:37:27;;;;;;;57.60;21.23;;;;;;;;;;5019882;28;20194;-75
2024/02/27 04:39:54;;;;;;;56.80;20.47;;;;;;;;;;5022562;28;20197;-75
2024/02/27 04:42:19;;;;;;;50.00;20.87;;;;;;;;;;5029818;28;20202;-75
2024/02/27 04:44:45;;;;;;;52.00;21.03;;;;;;;;;;5038870;28;20281;-75
2024/02/27 04:47:10;;;;;;;54.97;21.50;;;;;;;;;;5038928;28;20221;-74
2024/02/27 04:49:36;;;;;;;52.07;21.13;;;;;;;;;;5048302;28;20192;-75
2024/02/27 04:52:02;;;;;;;55.87;21.53;;;;;;;;;;5006338;28;20190;-76
2024/02/27 04:54:27;;;;;;;54.67;19.77;;;;;;;;;;5017875;28;20212;-75
2024/02/27 04:56:53;;;;;;;54.20;21.63;;;;;;;;;;5023217;28;20604;-76
2024/02/27 04:59:18;;;;;;;57.27;21.77;;;;;;;;;;5033278;28;20186;-75
2024/02/27 05:01:47;;;;;;;56.87;22.20;;;;;;;;;;5041325;28;20178;-75
2024/02/27 05:04:13;;;;;;;58.60;21.03;;;;;;;;;;5028151;28;20714;-75
2024/02/27 05:06:39;;;;;;;62.57;22.30;;;;;;;;;;5043605;28;20218;-75
2024/02/27 05:09:05;;;;;;;62.03;21.33;;;;;;;;;;5040396;28;20550;-76
2024/02/27 05:11:31;;;;;;;64.93;22.73;;;;;;;;;;5018376;28;20185;-75
2024/02/27 05:13:56;;;;;;;63.33;22.73;;;;;;;;;;5017458;28;20601;-75
2024/02/27 05:16:22;;;;;;;64.67;22.83;;;;;;;;;;5030233;28;20218;-74
2024/02/27 05:18:48;;;;;;;59.70;22.10;;;;;;;;;;5029773;28;20240;-75
2024/02/27 05:21:13;;;;;;;59.37;21.23;;;;;;;;;;5032744;28;20281;-74
2024/02/27 05:23:39;;;;;;;54.07;21.87;;;;;;;;;;5029761;28;20697;-76
2024/02/27 05:26:04;;;;;;;65.63;22.93;;;;;;;;;;5040399;28;20173;-76
2024/02/27 05:28:30;;;;;;;64.33;23.30;;;;;;;;;;5026912;28;20673;-74
2024/02/27 05:30:56;;;;;;;61.40;23.00;;;;;;;;;;5048886;28;20189;-75
2024/02/27 05:33:21;;;;;;;67.17;23.23;;;;;;;;;;5029473;28;20208;-74
2024/02/27 05:35:47;;;;;;;68.47;23.50;;;;;;;;;;5028149;28;20701;-75
2024/02/27 05:38:12;;;;;;;65.17;22.67;;;;;;;;;;5022052;28;20268;-75
2024/02/27 05:40:38;;;;;;;59.67;22.40;;;;;;;;;;5032187;28;20194;-75
2024/02/27 05:43:03;;;;;;;64.33;23.60;;;;;;;;;;5028653;28;20608;-75
2024/02/27 05:45:29;;;;;;;49.90;18.43;;;;;;;;;;5038150;28;20619;-75
2024/02/27 05:47:54;;;;;;;68.97;23.87;;;;;;;;;;5032574;28;20194;-75
2024/02/27 05:50:20;;;;;;;72.63;24.80;;;;;;;;;;5024705;28;20190;-74
2024/02/27 05:52:47;;;;;;;63.63;23.30;;;;;;;;;;5030163;28;20190;-75
2024/02/27 05:55:12;;;;;;;67.93;24.47;;;;;;;;;;5023000;28;20900;-75
2024/02/27 05:57:38;;;;;;;63.13;23.33;;;;;;;;;;5030412;28;20209;-75
2024/02/27 06:00:05;;;;;;;57.97;23.50;;;;;;;;;;5029318;28;20194;-75
2024/02/27 06:02:31;;;;;;;67.30;23.70;;;;;;;;;;5024139;28;20623;-76
2024/02/27 06:04:56;;;;;;;63.73;23.27;;;;;;;;;;5019394;28;20280;-75
2024/02/27 06:07:21;;;;;;;61.77;22.77;;;;;;;;;;5030694;28;20709;-75
2024/02/27 06:09:47;;;;;;;69.20;23.77;;;;;;;;;;5032149;28;20190;-75
2024/02/27 06:12:12;;;;;;;64.97;23.97;;;;;;;;;;5027282;28;20272;-76
2024/02/27 06:14:38;;;;;;;60.23;21.70;;;;;;;;;;5038375;28;20194;-76
2024/02/27 06:17:03;;;;;;;68.67;24.17;;;;;;;;;;5030800;28;20549;-76
2024/02/27 06:19:30;;;;;;;60.27;23.27;;;;;;;;;;5030223;28;20376;-75
2024/02/27 06:22:11;;;;;;;60.87;23.77;;;;;;;;;;5042387;28;20185;-76
2024/02/27 06:24:38;;;;;;;59.63;24.23;;;;;;;;;;5032293;28;20603;-76
2024/02/27 06:27:04;;;;;;;61.70;23.47;;;;;;;;;;5035616;28;20661;-76
2024/02/27 06:29:29;;;;;;;64.07;25.30;;;;;;;;;;5015361;28;20210;-76
2024/02/27 06:31:55;;;;;;;61.83;24.13;;;;;;;;;;5024934;28;20190;-76
2024/02/27 06:34:20;;;;;;;64.77;25.13;;;;;;;;;;5039370;28;20248;-76
2024/02/27 06:36:48;;;;;;;56.20;22.83;;;;;;;;;;5012456;28;20255;-76
2024/02/27 06:39:13;;;;;;;67.87;23.47;;;;;;;;;;5051313;28;20190;-76
2024/02/27 06:41:38;;;;;;;60.90;23.87;;;;;;;;;;5032401;28;20604;-76
2024/02/27 06:44:05;;;;;;;60.77;23.63;;;;;;;;;;5037249;28;20277;-76
2024/02/27 06:46:30;;;;;;;62.90;24.60;;;;;;;;;;5010661;28;20663;-76
2024/02/27 06:48:57;;;;;;;57.87;23.37;;;;;;;;;;5028749;28;20220;-76
2024/02/27 06:51:22;;;;;;;58.27;23.33;;;;;;;;;;5026747;28;20186;-76
2024/02/27 06:53:48;;;;;;;62.47;23.50;;;;;;;;;;5038806;28;20185;-76
2024/02/27 06:56:14;;;;;;;64.30;23.87;;;;;;;;;;5048416;28;20254;-76
2024/02/27 06:58:39;;;;;;;58.60;23.90;;;;;;;;;;5035559;28;20482;-76
2024/02/27 07:01:05;;;;;;;60.57;23.37;;;;;;;;;;5026674;28;20193;-76
2024/02/27 07:03:31;;;;;;;54.97;23.40;;;;;;;;;;5027673;28;20617;-76
2024/02/27 07:05:59;;;;;;;55.43;23.37;;;;;;;;;;5024452;28;20253;-76
2024/02/27 07:08:25;;;;;;;53.67;22.13;;;;;;;;;;5034791;28;20224;-76
2024/02/27 07:10:50;;;;;;;60.17;22.67;;;;;;;;;;5026753;28;20281;-76
2024/02/27 07:13:16;;;;;;;52.10;20.57;;;;;;;;;;5016395;28;20607;-76
2024/02/27 07:15:42;;;;;;;58.43;22.10;;;;;;;;;;5026995;28;20309;-76
2024/02/27 07:18:08;;;;;;;50.50;22.17;;;;;;;;;;5032800;28;20600;-76
2024/02/27 07:20:33;;;;;;;63.30;22.77;;;;;;;;;;5032744;28;20470;-76
2024/02/27 07:23:00;;;;;;;54.47;22.27;;;;;;;;;;5026993;28;20221;-76
2024/02/27 07:25:26;;;;;;;56.77;22.70;;;;;;;;;;5027729;28;20217;-76
2024/02/27 07:27:51;;;;;;;55.90;22.97;;;;;;;;;;5029832;28;20186;-76
2024/02/27 07:30:18;;;;;;;56.57;23.03;;;;;;;;;;5031628;28;20490;-76
2024/02/27 07:32:44;;;;;;;58.47;24.23;;;;;;;;;;5013666;28;20186;-76
2024/02/27 07:35:09;;;;;;;56.80;23.30;;;;;;;;;;5034194;28;20221;-76
2024/02/27 07:37:35;;;;;;;56.73;23.17;;;;;;;;;;5031372;28;20316;-76
2024/02/27 07:40:01;;;;;;;58.97;24.77;;;;;;;;;;5030076;28;20273;-76
2024/02/27 07:42:26;;;;;;;55.97;24.17;;;;;;;;;;5009937;28;20277;-76
2024/02/27 07:44:52;;;;;;;56.40;23.43;;;;;;;;;;5033198;28;20264;-76
2024/02/27 07:47:17;;;;;;;47.37;22.10;;;;;;;;;;5037249;28;20272;-75
2024/02/27 07:49:47;;;;;;;54.70;23.57;;;;;;;;;;5028981;28;20297;-76
2024/02/27 07:52:13;;;;;;;52.00;23.00;;;;;;;;;;5053413;28;20213;-76
2024/02/27 07:54:41;;;;;;;50.47;23.27;;;;;;;;;;5025325;28;20201;-76
2024/02/27 07:57:07;;;;;;;52.33;23.47;;;;;;;;;;5037869;28;20232;-75
2024/02/27 07:59:32;;;;;;;51.07;22.83;;;;;;;;;;5025523;28;20186;-75
2024/02/27 08:01:58;;;;;;;50.77;21.57;;;;;;;;;;5038201;28;20533;-75
2024/02/27 08:04:23;;;;;;;47.63;22.63;;;;;;;;;;5029605;28;20262;-75
2024/02/27 08:06:49;;;;;;;48.23;21.57;;;;;;;;;;5029146;28;20182;-75
2024/02/27 08:09:17;;;;;;;51.17;21.63;;;;;;;;;;5050790;28;20266;-75
2024/02/27 08:11:43;;;;;;;51.20;22.93;;;;;;;;;;5032978;28;20186;-75
2024/02/27 08:14:08;;;;;;;48.37;22.50;;;;;;;;;;5036493;28;20661;-75
2024/02/27 08:16:34;;;;;;;47.03;21.40;;;;;;;;;;5044753;28;20359;-75
2024/02/27 08:19:04;;;;;;;49.20;22.27;;;;;;;;;;5010752;28;20249;-75
2024/02/27 08:21:31;;;;;;;49.37;22.83;;;;;;;;;;4996033;28;20195;-75
2024/02/27 08:23:56;;;;;;;52.43;21.87;;;;;;;;;;5021782;28;20194;-75
2024/02/27 08:26:25;;;;;;;51.07;22.13;;;;;;;;;;5035171;28;20194;-76
2024/02/27 08:28:50;;;;;;;45.37;21.27;;;;;;;;;;5029780;28;20262;-75
2024/02/27 08:31:15;;;;;;;48.90;22.10;;;;;;;;;;5009757;28;20198;-75
2024/02/27 08:33:41;;;;;;;54.13;23.47;;;;;;;;;;5026323;28;20190;-74
2024/02/27 08:36:07;;;;;;;48.67;22.47;;;;;;;;;;5044243;28;20201;-75
2024/02/27 08:38:32;;;;;;;51.43;21.83;;;;;;;;;;5029488;28;20662;-76
2024/02/27 08:41:00;;;;;;;54.63;22.80;;;;;;;;;;5035510;28;20193;-74
2024/02/27 08:43:25;;;;;;;48.27;21.23;;;;;;;;;;5031905;28;20198;-74
2024/02/27 08:45:51;;;;;;;48.83;22.57;;;;;;;;;;5029279;28;20185;-74
2024/02/27 08:48:16;;;;;;;52.60;22.80;;;;;;;;;;5032639;28;20217;-77
2024/02/27 08:50:45;;;;;;;53.30;23.63;;;;;;;;;;5029629;28;20653;-74
2024/02/27 08:53:11;;;;;;;47.10;21.87;;;;;;;;;;5018655;28;20609;-74
2024/02/27 08:55:37;;;;;;;51.50;23.10;;;;;;;;;;5044526;28;20602;-74
2024/02/27 08:58:03;;;;;;;50.17;23.17;;;;;;;;;;5030087;28;20402;-74
2024/02/27 09:00:29;;;;;;;48.10;22.50;;;;;;;;;;5041328;28;20184;-74
2024/02/27 09:02:54;;;;;;;47.77;22.03;;;;;;;;;;5035752;28;20738;-75
2024/02/27 09:05:19;;;;;;;50.27;21.47;;;;;;;;;;5017700;28;20922;-75
2024/02/27 09:07:45;;;;;;;47.53;20.67;;;;;;;;;;5029065;28;20179;-75
2024/02/27 09:10:11;;;;;;;48.07;22.00;;;;;;;;;;5037686;28;20188;-75
2024/02/27 09:12:38;;;;;;;41.13;20.70;;;;;;;;;;5030537;28;20263;-75
2024/02/27 09:15:04;;;;;;;41.73;20.33;;;;;;;;;;5029954;28;20621;-75
2024/02/27 09:17:31;;;;;;;39.30;19.23;;;;;;;;;;5034705;28;20194;-75
2024/02/27 09:20:00;;;;;;;43.10;20.03;;;;;;;;;;5042508;28;20670;-75
2024/02/27 09:22:25;;;;;;;48.17;21.33;;;;;;;;;;5042895;28;20602;-75
2024/02/27 09:24:50;;;;;;;44.40;20.63;;;;;;;;;;5039651;28;20197;-75
2024/02/27 09:27:16;;;;;;;42.77;20.03;;;;;;;;;;5045647;28;20181;-75
2024/02/27 09:29:43;;;;;;;41.67;18.80;;;;;;;;;;5047073;28;20205;-75
2024/02/27 09:32:08;;;;;;;38.73;17.63;;;;;;;;;;5037189;28;20182;-75
2024/02/27 09:34:34;;;;;;;40.00;17.87;;;;;;;;;;5049737;28;20190;-75
2024/02/27 09:36:59;;;;;;;41.73;18.60;;;;;;;;;;5038121;28;20285;-75
2024/02/27 09:39:25;;;;;;;41.37;19.23;;;;;;;;;;5041898;28;20200;-75
2024/02/27 09:41:56;;;;;;;41.43;18.77;;;;;;;;;;5036801;28;20192;-75
2024/02/27 09:44:22;;;;;;;40.30;18.07;;;;;;;;;;5032698;28;20197;-76
2024/02/27 09:46:49;;;;;;;39.40;18.90;;;;;;;;;;5024554;28;20278;-75
2024/02/27 09:49:17;;;;;;;39.47;17.60;;;;;;;;;;5039321;28;20259;-75
2024/02/27 09:51:43;;;;;;;38.87;18.50;;;;;;;;;;5026568;28;20261;-75
2024/02/27 09:54:09;;;;;;;37.60;17.93;;;;;;;;;;5044039;28;20186;-75
2024/02/27 09:56:35;;;;;;;40.87;18.97;;;;;;;;;;5030741;28;20700;-76
2024/02/27 09:59:03;;;;;;;39.67;18.67;;;;;;;;;;5026845;28;20190;-76
2024/02/27 10:01:30;;;;;;;42.87;18.90;;;;;;;;;;5018472;28;20401;-76
2024/02/27 10:03:59;;;;;;;36.90;18.00;;;;;;;;;;5042316;28;20182;-75
2024/02/27 10:06:30;;;;;;;38.23;18.30;;;;;;;;;;5027322;28;20186;-75
2024/02/27 10:08:57;;;;;;;43.10;19.03;;;;;;;;;;5025452;28;20518;-75
2024/02/27 10:11:23;;;;;;;42.20;19.33;;;;;;;;;;5039325;28;20206;-75
2024/02/27 10:13:48;;;;;;;38.90;19.10;;;;;;;;;;5034581;28;20300;-75
2024/02/27 10:16:14;;;;;;;43.27;20.03;;;;;;;;;;5032789;28;20221;-75
2024/02/27 10:18:40;;;;;;;39.77;18.70;;;;;;;;;;5027748;28;20241;-75
2024/02/27 10:21:05;;;;;;;38.73;18.50;;;;;;;;;;5038206;28;20204;-75
2024/02/27 10:23:31;;;;;;;39.63;19.77;;;;;;;;;;5033272;28;20186;-76
2024/02/27 10:26:10;;;;;;;41.90;20.33;;;;;;;;;;5031319;28;20243;-76
2024/02/27 10:28:37;;;;;;;37.37;18.03;;;;;;;;;;5029264;28;20194;-76
2024/02/27 10:31:10;;;;;;;35.90;18.70;;;;;;;;;;5039085;28;20649;-76
2024/02/27 10:33:38;;;;;;;38.23;18.30;;;;;;;;;;5040610;28;20190;-76
2024/02/27 10:36:06;;;;;;;35.97;17.83;;;;;;;;;;5031236;28;20218;-77
2024/02/27 10:38:31;;;;;;;31.47;17.03;;;;;;;;;;5046678;28;20537;-76
2024/02/27 10:40:57;;;;;;;33.43;16.73;;;;;;;;;;5033605;28;20202;-76
2024/02/27 10:43:24;;;;;;;34.33;17.93;;;;;;;;;;5028611;28;20255;-76
2024/02/27 10:45:49;;;;;;;34.90;17.73;;;;;;;;;;5027285;28;20186;-74
2024/02/27 10:48:16;;;;;;;37.23;17.43;;;;;;;;;;5032310;28;20254;-74
2024/02/27 10:50:42;;;;;;;30.13;16.53;;;;;;;;;;5021587;28;20197;-74
2024/02/27 10:53:09;;;;;;;32.93;17.30;;;;;;;;;;5041161;28;20550;-74
2024/02/27 10:55:37;;;;;;;30.57;16.77;;;;;;;;;;5027555;28;24325;-74
2024/02/27 10:58:03;;;;;;;33.40;16.07;;;;;;;;;;5011536;28;20186;-75
2024/02/27 11:00:29;;;;;;;34.33;17.30;;;;;;;;;;5024721;28;20193;-75
2024/02/27 11:02:59;;;;;;;30.83;16.33;;;;;;;;;;5035720;28;20190;-75
2024/02/27 11:05:29;;;;;;;34.73;16.63;;;;;;;;;;5040698;28;20189;-75
2024/02/27 11:07:55;;;;;;;31.80;17.10;;;;;;;;;;5039022;28;20209;-75
2024/02/27 11:10:29;;;;;;;29.50;16.43;;;;;;;;;;5042043;28;20252;-75
2024/02/27 11:12:55;;;;;;;31.43;16.03;;;;;;;;;;5040784;28;20190;-75
2024/02/27 11:15:22;;;;;;;32.50;16.37;;;;;;;;;;5051935;28;20672;-75
2024/02/27 11:18:01;;;;;;;31.03;16.27;;;;;;;;;;5033092;28;20198;-75
2024/02/27 11:20:28;;;;;;;31.43;16.90;;;;;;;;;;5030566;28;20233;-75
2024/02/27 11:22:54;;;;;;;30.13;16.33;;;;;;;;;;5051008;28;20553;-75
2024/02/27 11:25:20;;;;;;;32.57;16.77;;;;;;;;;;5050510;28;20200;-75
2024/02/27 11:27:47;;;;;;;34.87;17.70;;;;;;;;;;5038681;28;20191;-75
2024/02/27 11:30:13;;;;;;;34.13;17.67;;;;;;;;;;5025049;28;20198;-75
2024/02/27 11:32:39;;;;;;;31.70;17.23;;;;;;;;;;5020676;28;20197;-75
2024/02/27 11:35:06;;;;;;;33.30;17.73;;;;;;;;;;5029775;28;20658;-75
2024/02/27 11:37:31;;;;;;;33.73;17.63;;;;;;;;;;5036708;28;20279;-75
2024/02/27 11:39:57;;;;;;;32.90;17.37;;;;;;;;;;5042574;28;20650;-76
2024/02/27 11:42:39;;;;;;;32.43;17.80;;;;;;;;;;5037743;28;20681;-75
2024/02/27 11:45:14;;;;;;;34.30;19.03;;;;;;;;;;5042340;28;20714;-74
2024/02/27 11:47:51;;;;;;;35.93;18.77;;;;;;;;;;5029738;28;20567;-74
2024/02/27 11:50:34;;;;;;;36.83;18.60;;;;;;;;;;5018102;28;20197;-74
2024/02/27 11:53:15;;;;;;;40.10;18.73;;;;;;;;;;5046371;28;20185;-74
2024/02/27 11:55:40;;;;;;;34.83;18.77;;;;;;;;;;5032055;28;20225;-74
2024/02/27 11:58:07;;;;;;;41.43;19.60;;;;;;;;;;5043066;28;20584;-74
2024/02/27 12:00:34;;;;;;;42.47;19.97;;;;;;;;;;5013638;28;20603;-74
2024/02/27 12:03:00;;;;;;;38.00;18.87;;;;;;;;;;4994045;28;20265;-75
2024/02/27 12:05:25;;;;;;;40.83;19.83;;;;;;;;;;5023002;28;20281;-74
2024/02/27 12:07:51;;;;;;;39.50;18.90;;;;;;;;;;5043063;28;20186;-75
2024/02/27 12:10:16;;;;;;;39.87;19.67;;;;;;;;;;5016556;28;20208;-75
2024/02/27 12:12:43;;;;;;;43.90;20.87;;;;;;;;;;5027111;28;20650;-74
2024/02/27 12:15:09;;;;;;;41.63;20.07;;;;;;;;;;5046400;28;20181;-75
2024/02/27 12:17:39;;;;;;;42.43;20.97;;;;;;;;;;5050271;28;20221;-74
2024/02/27 12:20:11;;;;;;;42.70;20.53;;;;;;;;;;5035112;28;20253;-75
2024/02/27 12:22:45;;;;;;;45.00;21.43;;;;;;;;;;5047022;28;20323;-74
2024/02/27 12:25:11;;;;;;;43.73;22.33;;;;;;;;;;5040907;28;20217;-74
2024/02/27 12:27:38;;;;;;;45.40;23.03;;;;;;;;;;5030447;28;20598;-74
2024/02/27 12:30:10;;;;;;;50.17;22.83;;;;;;;;;;5020128;28;20194;-74
2024/02/27 12:32:45;;;;;;;45.80;20.07;;;;;;;;;;5043765;28;20259;-75
2024/02/27 12:35:12;;;;;;;44.70;22.23;;;;;;;;;;5013656;28;20188;-74
2024/02/27 12:37:43;;;;;;;44.63;22.00;;;;;;;;;;5027139;28;20198;-74
2024/02/27 12:40:11;;;;;;;49.63;23.57;;;;;;;;;;5039191;28;20189;-74
2024/02/27 12:42:43;;;;;;;48.77;23.60;;;;;;;;;;5042459;28;20319;-75
2024/02/27 12:45:10;;;;;;;49.80;22.50;;;;;;;;;;5043153;28;20193;-75
2024/02/27 12:47:40;;;;;;;44.63;21.97;;;;;;;;;;5027960;28;20212;-74
2024/02/27 12:50:07;;;;;;;43.47;22.05;;;;;;;;;;5016036;28;20185;-75
2024/02/27 12:52:33;;;;;;;46.77;21.83;;;;;;;;;;5037578;28;20185;-74
2024/02/27 12:54:58;;;;;;;47.20;22.40;;;;;;;;;;5038217;28;20267;-74
2024/02/27 12:57:24;;;;;;;45.77;22.33;;;;;;;;;;5035262;28;20225;-74
2024/02/27 12:59:49;;;;;;;49.78;22.23;;;;;;;;;;5032083;28;20555;-75
2024/02/27 13:02:15;;;;;;;44.63;21.47;;;;;;;;;;5043177;28;20201;-74
2024/02/27 13:04:41;;;;;;;40.83;20.20;;;;;;;;;;5040206;28;20189;-74
2024/02/27 13:07:09;;;;;;;38.80;20.33;;;;;;;;;;5027390;28;20572;-73
2024/02/27 13:09:35;;;;;;;40.22;19.77;;;;;;;;;;5031811;28;20197;-74
2024/02/27 13:12:07;;;;;;;38.28;20.13;;;;;;;;;;5028156;28;20182;-74
2024/02/27 13:14:33;;;;;;;41.40;20.23;;;;;;;;;;5027610;28;20297;-74
2024/02/27 13:16:59;;;;;;;40.40;21.00;;;;;;;;;;5046608;28;20580;-74
2024/02/27 13:19:24;;;;;;;47.53;21.37;;;;;;;;;;5002538;28;20758;-74
2024/02/27 13:21:55;;;;;;;44.20;21.02;;;;;;;;;;5034466;28;20191;-74
2024/02/27 13:24:20;;;;;;;42.13;21.88;;;;;;;;;;5027821;28;20230;-74
2024/02/27 13:26:46;;;;;;;42.27;20.23;;;;;;;;;;5024254;28;20186;-74
2024/02/27 13:29:11;;;;;;;44.28;21.05;;;;;;;;;;5024524;28;20190;-74
2024/02/27 13:31:37;;;;;;;45.00;22.55;;;;;;;;;;5025422;28;20196;-75
2024/02/27 13:34:02;;;;;;;40.65;20.30;;;;;;;;;;5047641;28;20208;-74
2024/02/27 13:36:27;;;;;;;42.10;21.20;;;;;;;;;;5028989;28;20218;-74
2024/02/27 13:38:53;;;;;;;44.25;22.20;;;;;;;;;;5030624;28;20205;-75
2024/02/27 13:41:20;;;;;;;44.13;22.38;;;;;;;;;;5042466;28;20209;-75
2024/02/27 13:43:46;;;;;;;40.08;20.45;;;;;;;;;;5037421;28;20293;-75
2024/02/27 13:46:11;;;;;;;41.43;20.87;;;;;;;;;;5031530;28;20268;-75
2024/02/27 13:48:37;;;;;;;44.17;21.50;;;;;;;;;;5029571;28;20208;-75
2024/02/27 13:51:03;;;;;;;42.37;21.20;;;;;;;;;;5036359;28;20190;-75
2024/02/27 13:53:29;;;;;;;46.27;22.40;;;;;;;;;;5026812;28;20194;-75
2024/02/27 13:55:54;;;;;;;44.03;22.77;;;;;;;;;;5027453;28;20259;-75
2024/02/27 13:58:20;;;;;;;45.43;21.37;;;;;;;;;;5024206;28;20209;-75
2024/02/27 14:00:45;;;;;;;46.37;22.17;;;;;;;;;;5041070;28;20197;-75
2024/02/27 14:03:11;;;;;;;46.67;21.83;;;;;;;;;;5027973;28;20320;-75
2024/02/27 14:05:36;;;;;;;42.60;22.20;;;;;;;;;;5020357;28;20190;-75
2024/02/27 14:08:02;;;;;;;43.97;20.80;;;;;;;;;;5030272;28;20186;-75
2024/02/27 14:10:27;;;;;;;41.67;21.67;;;;;;;;;;5040038;28;20181;-75